sensor_id;sensor_type;location;lat;lon;timestamp;P1;durP1;ratioP1;P2;durP2;ratioP2
33954;SDS011;20233;50.804;7.126;2024-01-15T00:00:13;24.88;;;10.50;;
33954;SDS011;20233;50.804;7.126;2024-01-15T00:02:39;28.58;;;10.48;;
33954;SDS011;20233;50.804;7.126;2024-01-15T00:05:05;26.33;;;11.43;;
33954;SDS011;20233;50.804;7.126;2024-01-15T00:07:30;28.98;;;12.20;;
33954;SDS011;20233;50.804;7.126;2024-01-15T00:09:56;25.50;;;11.52;;
33954;SDS011;20233;50.804;7.126;2024-01-15T00:12:21;26.70;;;11.18;;
33954;SDS011;20233;50.804;7.126;2024-01-15T00:14:47;24.10;;;10.48;;
33954;SDS011;20233;50.804;7.126;2024-01-15T00:17:12;24.88;;;11.55;;
33954;SDS011;20233;50.804;7.126;2024-01-15T00:19:38;29.40;;;12.05;;
33954;SDS011;20233;50.804;7.126;2024-01-15T00:22:04;30.38;;;11.73;;
33954;SDS011;20233;50.804;7.126;2024-01-15T00:24:29;28.40;;;12.32;;
33954;SDS011;20233;50.804;7.126;2024-01-15T00:26:55;25.40;;;10.82;;
33954;SDS011;20233;50.804;7.126;2024-01-15T00:29:20;30.42;;;11.57;;
33954;SDS011;20233;50.804;7.126;2024-01-15T00:31:46;24.75;;;11.15;;
33954;SDS011;20233;50.804;7.126;2024-01-15T00:34:12;24.75;;;10.38;;
33954;SDS011;20233;50.804;7.126;2024-01-15T00:36:38;26.77;;;10.68;;
33954;SDS011;20233;50.804;7.126;2024-01-15T00:39:03;25.75;;;10.75;;
33954;SDS011;20233;50.804;7.126;2024-01-15T00:41:30;27.67;;;11.23;;
33954;SDS011;20233;50.804;7.126;2024-01-15T00:43:56;28.05;;;10.93;;
33954;SDS011;20233;50.804;7.126;2024-01-15T00:46:21;29.67;;;12.05;;
33954;SDS011;20233;50.804;7.126;2024-01-15T00:48:47;27.63;;;10.40;;
33954;SDS011;20233;50.804;7.126;2024-01-15T00:51:13;27.25;;;11.68;;
33954;SDS011;20233;50.804;7.126;2024-01-15T00:53:38;28.30;;;11.10;;
33954;SDS011;20233;50.804;7.126;2024-01-15T00:56:04;28.20;;;10.90;;
33954;SDS011;20233;50.804;7.126;2024-01-15T00:58:29;27.95;;;11.57;;
33954;SDS011;20233;50.804;7.126;2024-01-15T01:00:55;26.92;;;11.27;;
33954;SDS011;20233;50.804;7.126;2024-01-15T01:03:20;27.95;;;11.85;;
33954;SDS011;20233;50.804;7.126;2024-01-15T01:05:48;30.63;;;13.10;;
33954;SDS011;20233;50.804;7.126;2024-01-15T01:08:14;30.75;;;11.32;;
33954;SDS011;20233;50.804;7.126;2024-01-15T01:10:40;30.55;;;13.35;;
33954;SDS011;20233;50.804;7.126;2024-01-15T01:13:07;29.83;;;12.73;;
33954;SDS011;20233;50.804;7.126;2024-01-15T01:15:33;25.08;;;12.00;;
33954;SDS011;20233;50.804;7.126;2024-01-15T01:17:59;32.22;;;12.98;;
33954;SDS011;20233;50.804;7.126;2024-01-15T01:20:24;30.65;;;12.13;;
33954;SDS011;20233;50.804;7.126;2024-01-15T01:22:50;28.70;;;12.70;;
33954;SDS011;20233;50.804;7.126;2024-01-15T01:25:15;26.10;;;13.07;;
33954;SDS011;20233;50.804;7.126;2024-01-15T01:27:41;29.25;;;11.48;;
33954;SDS011;20233;50.804;7.126;2024-01-15T01:30:06;30.42;;;13.07;;
33954;SDS011;20233;50.804;7.126;2024-01-15T01:32:32;30.20;;;12.40;;
33954;SDS011;20233;50.804;7.126;2024-01-15T01:34:58;31.02;;;13.25;;
33954;SDS011;20233;50.804;7.126;2024-01-15T01:37:24;30.90;;;12.70;;
33954;SDS011;20233;50.804;7.126;2024-01-15T01:39:49;28.50;;;13.60;;
33954;SDS011;20233;50.804;7.126;2024-01-15T01:42:15;27.02;;;11.15;;
33954;SDS011;20233;50.804;7.126;2024-01-15T01:44:41;31.92;;;13.35;;
33954;SDS011;20233;50.804;7.126;2024-01-15T01:47:07;27.88;;;11.88;;
33954;SDS011;20233;50.804;7.126;2024-01-15T01:49:33;33.45;;;12.32;;
33954;SDS011;20233;50.804;7.126;2024-01-15T01:52:00;32.30;;;13.10;;
33954;SDS011;20233;50.804;7.126;2024-01-15T01:54:28;28.65;;;11.50;;
33954;SDS011;20233;50.804;7.126;2024-01-15T01:56:55;35.83;;;13.93;;
33954;SDS011;20233;50.804;7.126;2024-01-15T01:59:21;27.92;;;11.75;;
33954;SDS011;20233;50.804;7.126;2024-01-15T02:01:48;32.30;;;13.77;;
33954;SDS011;20233;50.804;7.126;2024-01-15T02:04:15;34.30;;;14.00;;
33954;SDS011;20233;50.804;7.126;2024-01-15T02:06:41;33.15;;;14.02;;
33954;SDS011;20233;50.804;7.126;2024-01-15T02:09:07;35.92;;;14.90;;
33954;SDS011;20233;50.804;7.126;2024-01-15T02:11:34;34.53;;;13.50;;
33954;SDS011;20233;50.804;7.126;2024-01-15T02:14:00;33.92;;;13.38;;
33954;SDS011;20233;50.804;7.126;2024-01-15T02:16:26;36.92;;;14.90;;
33954;SDS011;20233;50.804;7.126;2024-01-15T02:18:52;33.28;;;14.02;;
33954;SDS011;20233;50.804;7.126;2024-01-15T02:21:17;35.42;;;14.75;;
33954;SDS011;20233;50.804;7.126;2024-01-15T02:23:43;34.22;;;15.50;;
33954;SDS011;20233;50.804;7.126;2024-01-15T02:26:08;32.25;;;14.50;;
33954;SDS011;20233;50.804;7.126;2024-01-15T02:28:34;35.22;;;14.68;;
33954;SDS011;20233;50.804;7.126;2024-01-15T02:31:00;36.70;;;15.27;;
33954;SDS011;20233;50.804;7.126;2024-01-15T02:33:25;28.80;;;12.88;;
33954;SDS011;20233;50.804;7.126;2024-01-15T02:35:51;35.88;;;13.85;;
33954;SDS011;20233;50.804;7.126;2024-01-15T02:38:16;34.28;;;13.80;;
33954;SDS011;20233;50.804;7.126;2024-01-15T02:40:43;39.33;;;14.50;;
33954;SDS011;20233;50.804;7.126;2024-01-15T02:43:09;35.65;;;14.75;;
33954;SDS011;20233;50.804;7.126;2024-01-15T02:45:35;35.88;;;14.95;;
33954;SDS011;20233;50.804;7.126;2024-01-15T02:48:00;32.85;;;13.60;;
33954;SDS011;20233;50.804;7.126;2024-01-15T02:50:26;32.85;;;13.20;;
33954;SDS011;20233;50.804;7.126;2024-01-15T02:52:51;34.65;;;14.68;;
33954;SDS011;20233;50.804;7.126;2024-01-15T02:55:17;32.20;;;13.02;;
33954;SDS011;20233;50.804;7.126;2024-01-15T02:57:43;35.88;;;14.52;;
33954;SDS011;20233;50.804;7.126;2024-01-15T03:00:09;33.03;;;14.10;;
33954;SDS011;20233;50.804;7.126;2024-01-15T03:02:36;38.10;;;15.20;;
33954;SDS011;20233;50.804;7.126;2024-01-15T03:05:06;32.90;;;13.90;;
33954;SDS011;20233;50.804;7.126;2024-01-15T03:07:32;32.22;;;13.48;;
33954;SDS011;20233;50.804;7.126;2024-01-15T03:09:58;32.60;;;13.60;;
33954;SDS011;20233;50.804;7.126;2024-01-15T03:12:23;32.35;;;13.02;;
33954;SDS011;20233;50.804;7.126;2024-01-15T03:14:49;27.23;;;12.50;;
33954;SDS011;20233;50.804;7.126;2024-01-15T03:17:14;26.75;;;11.13;;
33954;SDS011;20233;50.804;7.126;2024-01-15T03:19:40;29.08;;;13.68;;
33954;SDS011;20233;50.804;7.126;2024-01-15T03:22:06;27.98;;;13.35;;
33954;SDS011;20233;50.804;7.126;2024-01-15T03:24:33;31.85;;;14.07;;
33954;SDS011;20233;50.804;7.126;2024-01-15T03:26:59;29.83;;;12.43;;
33954;SDS011;20233;50.804;7.126;2024-01-15T03:29:25;31.30;;;12.73;;
33954;SDS011;20233;50.804;7.126;2024-01-15T03:31:51;29.10;;;12.30;;
33954;SDS011;20233;50.804;7.126;2024-01-15T03:34:17;29.42;;;12.30;;
33954;SDS011;20233;50.804;7.126;2024-01-15T03:36:43;27.25;;;12.85;;
33954;SDS011;20233;50.804;7.126;2024-01-15T03:39:08;26.33;;;12.02;;
33954;SDS011;20233;50.804;7.126;2024-01-15T03:41:34;26.35;;;11.23;;
33954;SDS011;20233;50.804;7.126;2024-01-15T03:44:00;27.40;;;12.13;;
33954;SDS011;20233;50.804;7.126;2024-01-15T03:46:26;28.15;;;12.57;;
33954;SDS011;20233;50.804;7.126;2024-01-15T03:48:51;26.30;;;12.48;;
33954;SDS011;20233;50.804;7.126;2024-01-15T03:51:17;25.55;;;11.05;;
33954;SDS011;20233;50.804;7.126;2024-01-15T03:53:43;24.75;;;11.85;;
33954;SDS011;20233;50.804;7.126;2024-01-15T03:56:09;24.20;;;12.07;;
33954;SDS011;20233;50.804;7.126;2024-01-15T03:58:34;24.20;;;11.30;;
33954;SDS011;20233;50.804;7.126;2024-01-15T04:01:00;25.77;;;12.40;;
33954;SDS011;20233;50.804;7.126;2024-01-15T04:03:25;26.95;;;12.10;;
33954;SDS011;20233;50.804;7.126;2024-01-15T04:05:51;26.25;;;12.80;;
33954;SDS011;20233;50.804;7.126;2024-01-15T04:08:16;26.25;;;11.95;;
33954;SDS011;20233;50.804;7.126;2024-01-15T04:10:42;25.55;;;12.02;;
33954;SDS011;20233;50.804;7.126;2024-01-15T04:13:07;29.15;;;13.32;;
33954;SDS011;20233;50.804;7.126;2024-01-15T04:15:33;30.17;;;13.25;;
33954;SDS011;20233;50.804;7.126;2024-01-15T04:17:58;25.30;;;11.98;;
33954;SDS011;20233;50.804;7.126;2024-01-15T04:20:26;28.23;;;13.57;;
33954;SDS011;20233;50.804;7.126;2024-01-15T04:22:51;27.50;;;12.60;;
33954;SDS011;20233;50.804;7.126;2024-01-15T04:25:17;25.50;;;12.85;;
33954;SDS011;20233;50.804;7.126;2024-01-15T04:27:42;24.92;;;11.80;;
33954;SDS011;20233;50.804;7.126;2024-01-15T04:30:08;27.38;;;12.73;;
33954;SDS011;20233;50.804;7.126;2024-01-15T04:32:34;27.73;;;12.95;;
33954;SDS011;20233;50.804;7.126;2024-01-15T04:34:59;27.58;;;12.35;;
33954;SDS011;20233;50.804;7.126;2024-01-15T04:37:25;26.30;;;12.65;;
33954;SDS011;20233;50.804;7.126;2024-01-15T04:39:50;29.27;;;12.57;;
33954;SDS011;20233;50.804;7.126;2024-01-15T04:42:19;27.63;;;13.90;;
33954;SDS011;20233;50.804;7.126;2024-01-15T04:44:45;27.77;;;11.80;;
33954;SDS011;20233;50.804;7.126;2024-01-15T04:47:11;26.20;;;12.05;;
33954;SDS011;20233;50.804;7.126;2024-01-15T04:49:36;27.70;;;11.57;;
33954;SDS011;20233;50.804;7.126;2024-01-15T04:52:02;26.75;;;11.40;;
33954;SDS011;20233;50.804;7.126;2024-01-15T04:54:27;25.85;;;10.82;;
33954;SDS011;20233;50.804;7.126;2024-01-15T04:56:53;27.17;;;12.57;;
33954;SDS011;20233;50.804;7.126;2024-01-15T04:59:18;23.98;;;10.52;;
33954;SDS011;20233;50.804;7.126;2024-01-15T05:01:45;24.63;;;11.18;;
33954;SDS011;20233;50.804;7.126;2024-01-15T05:04:11;25.75;;;10.32;;
33954;SDS011;20233;50.804;7.126;2024-01-15T05:06:36;25.75;;;11.25;;
33954;SDS011;20233;50.804;7.126;2024-01-15T05:09:02;21.52;;;10.82;;
33954;SDS011;20233;50.804;7.126;2024-01-15T05:11:28;25.20;;;12.52;;
33954;SDS011;20233;50.804;7.126;2024-01-15T05:13:54;23.13;;;12.10;;
33954;SDS011;20233;50.804;7.126;2024-01-15T05:16:19;23.13;;;12.40;;
33954;SDS011;20233;50.804;7.126;2024-01-15T05:18:45;22.73;;;11.80;;
33954;SDS011;20233;50.804;7.126;2024-01-15T05:21:11;24.45;;;10.85;;
33954;SDS011;20233;50.804;7.126;2024-01-15T05:23:37;24.35;;;10.70;;
33954;SDS011;20233;50.804;7.126;2024-01-15T05:26:03;22.58;;;9.85;;
33954;SDS011;20233;50.804;7.126;2024-01-15T05:28:29;23.25;;;10.65;;
33954;SDS011;20233;50.804;7.126;2024-01-15T05:30:54;18.63;;;10.07;;
33954;SDS011;20233;50.804;7.126;2024-01-15T05:33:20;23.25;;;10.70;;
33954;SDS011;20233;50.804;7.126;2024-01-15T05:35:49;19.48;;;10.10;;
33954;SDS011;20233;50.804;7.126;2024-01-15T05:38:15;22.23;;;10.98;;
33954;SDS011;20233;50.804;7.126;2024-01-15T05:40:41;24.88;;;10.98;;
33954;SDS011;20233;50.804;7.126;2024-01-15T05:43:07;23.85;;;10.35;;
33954;SDS011;20233;50.804;7.126;2024-01-15T05:45:33;23.27;;;11.13;;
33954;SDS011;20233;50.804;7.126;2024-01-15T05:48:00;23.73;;;9.65;;
33954;SDS011;20233;50.804;7.126;2024-01-15T05:50:26;23.02;;;10.93;;
33954;SDS011;20233;50.804;7.126;2024-01-15T05:52:51;26.63;;;12.50;;
33954;SDS011;20233;50.804;7.126;2024-01-15T05:55:17;25.08;;;12.10;;
33954;SDS011;20233;50.804;7.126;2024-01-15T05:57:43;24.73;;;13.20;;
33954;SDS011;20233;50.804;7.126;2024-01-15T06:00:09;25.90;;;13.85;;
33954;SDS011;20233;50.804;7.126;2024-01-15T06:02:37;24.08;;;11.60;;
33954;SDS011;20233;50.804;7.126;2024-01-15T06:05:03;23.67;;;11.73;;
33954;SDS011;20233;50.804;7.126;2024-01-15T06:07:29;23.95;;;11.20;;
33954;SDS011;20233;50.804;7.126;2024-01-15T06:09:54;22.02;;;12.25;;
33954;SDS011;20233;50.804;7.126;2024-01-15T06:12:22;25.58;;;10.98;;
33954;SDS011;20233;50.804;7.126;2024-01-15T06:14:47;27.25;;;11.10;;
33954;SDS011;20233;50.804;7.126;2024-01-15T06:17:13;23.95;;;11.07;;
33954;SDS011;20233;50.804;7.126;2024-01-15T06:19:39;22.42;;;11.68;;
33954;SDS011;20233;50.804;7.126;2024-01-15T06:22:04;23.05;;;11.02;;
33954;SDS011;20233;50.804;7.126;2024-01-15T06:24:30;21.63;;;10.98;;
33954;SDS011;20233;50.804;7.126;2024-01-15T06:26:55;26.58;;;10.95;;
33954;SDS011;20233;50.804;7.126;2024-01-15T06:29:21;25.20;;;11.07;;
33954;SDS011;20233;50.804;7.126;2024-01-15T06:31:46;24.42;;;10.25;;
33954;SDS011;20233;50.804;7.126;2024-01-15T06:34:14;22.08;;;10.98;;
33954;SDS011;20233;50.804;7.126;2024-01-15T06:36:40;24.88;;;11.70;;
33954;SDS011;20233;50.804;7.126;2024-01-15T06:39:05;25.58;;;11.38;;
33954;SDS011;20233;50.804;7.126;2024-01-15T06:41:31;23.92;;;12.63;;
33954;SDS011;20233;50.804;7.126;2024-01-15T06:43:57;22.25;;;11.68;;
33954;SDS011;20233;50.804;7.126;2024-01-15T06:46:23;27.13;;;12.73;;
33954;SDS011;20233;50.804;7.126;2024-01-15T06:48:49;28.58;;;12.32;;
33954;SDS011;20233;50.804;7.126;2024-01-15T06:51:16;21.80;;;11.75;;
33954;SDS011;20233;50.804;7.126;2024-01-15T06:53:43;27.13;;;11.43;;
33954;SDS011;20233;50.804;7.126;2024-01-15T06:56:09;22.63;;;11.13;;
33954;SDS011;20233;50.804;7.126;2024-01-15T06:58:35;26.58;;;11.98;;
33954;SDS011;20233;50.804;7.126;2024-01-15T07:01:01;27.52;;;12.77;;
33954;SDS011;20233;50.804;7.126;2024-01-15T07:03:27;25.95;;;11.10;;
33954;SDS011;20233;50.804;7.126;2024-01-15T07:05:53;24.65;;;12.57;;
33954;SDS011;20233;50.804;7.126;2024-01-15T07:08:20;27.48;;;13.20;;
33954;SDS011;20233;50.804;7.126;2024-01-15T07:10:47;23.50;;;11.88;;
33954;SDS011;20233;50.804;7.126;2024-01-15T07:13:13;25.23;;;12.35;;
33954;SDS011;20233;50.804;7.126;2024-01-15T07:15:38;22.55;;;12.77;;
33954;SDS011;20233;50.804;7.126;2024-01-15T07:18:05;24.95;;;11.40;;
33954;SDS011;20233;50.804;7.126;2024-01-15T07:20:32;28.02;;;13.73;;
33954;SDS011;20233;50.804;7.126;2024-01-15T07:22:59;24.45;;;12.85;;
33954;SDS011;20233;50.804;7.126;2024-01-15T07:25:25;27.88;;;12.13;;
33954;SDS011;20233;50.804;7.126;2024-01-15T07:27:52;26.88;;;12.52;;
33954;SDS011;20233;50.804;7.126;2024-01-15T07:30:19;25.80;;;13.73;;
33954;SDS011;20233;50.804;7.126;2024-01-15T07:32:47;27.25;;;14.00;;
33954;SDS011;20233;50.804;7.126;2024-01-15T07:35:14;24.05;;;12.35;;
33954;SDS011;20233;50.804;7.126;2024-01-15T07:37:40;26.40;;;13.48;;
33954;SDS011;20233;50.804;7.126;2024-01-15T07:40:07;28.85;;;13.45;;
33954;SDS011;20233;50.804;7.126;2024-01-15T07:42:34;27.88;;;12.65;;
33954;SDS011;20233;50.804;7.126;2024-01-15T07:45:00;26.10;;;12.25;;
33954;SDS011;20233;50.804;7.126;2024-01-15T07:47:26;27.23;;;13.02;;
33954;SDS011;20233;50.804;7.126;2024-01-15T07:49:53;29.60;;;12.95;;
33954;SDS011;20233;50.804;7.126;2024-01-15T07:52:21;29.10;;;12.77;;
33954;SDS011;20233;50.804;7.126;2024-01-15T07:54:46;24.77;;;12.55;;
33954;SDS011;20233;50.804;7.126;2024-01-15T07:57:13;21.73;;;12.07;;
33954;SDS011;20233;50.804;7.126;2024-01-15T07:59:39;23.50;;;12.38;;
33954;SDS011;20233;50.804;7.126;2024-01-15T08:02:05;25.83;;;11.20;;
33954;SDS011;20233;50.804;7.126;2024-01-15T08:04:31;25.30;;;11.40;;
33954;SDS011;20233;50.804;7.126;2024-01-15T08:06:57;28.08;;;11.88;;
33954;SDS011;20233;50.804;7.126;2024-01-15T08:09:23;21.30;;;11.25;;
33954;SDS011;20233;50.804;7.126;2024-01-15T08:11:49;21.98;;;11.27;;
33954;SDS011;20233;50.804;7.126;2024-01-15T08:14:15;23.92;;;11.80;;
33954;SDS011;20233;50.804;7.126;2024-01-15T08:16:41;25.42;;;10.82;;
33954;SDS011;20233;50.804;7.126;2024-01-15T08:19:08;23.20;;;11.60;;
33954;SDS011;20233;50.804;7.126;2024-01-15T08:21:34;25.77;;;11.75;;
33954;SDS011;20233;50.804;7.126;2024-01-15T08:24:00;25.08;;;11.73;;
33954;SDS011;20233;50.804;7.126;2024-01-15T08:26:29;22.27;;;9.90;;
33954;SDS011;20233;50.804;7.126;2024-01-15T08:28:58;22.92;;;10.15;;
33954;SDS011;20233;50.804;7.126;2024-01-15T08:31:24;20.98;;;10.00;;
33954;SDS011;20233;50.804;7.126;2024-01-15T08:33:50;25.80;;;10.85;;
33954;SDS011;20233;50.804;7.126;2024-01-15T08:36:16;21.75;;;10.48;;
33954;SDS011;20233;50.804;7.126;2024-01-15T08:38:42;24.38;;;10.13;;
33954;SDS011;20233;50.804;7.126;2024-01-15T08:41:08;19.77;;;9.85;;
33954;SDS011;20233;50.804;7.126;2024-01-15T08:43:35;20.50;;;9.90;;
33954;SDS011;20233;50.804;7.126;2024-01-15T08:46:03;22.52;;;11.20;;
33954;SDS011;20233;50.804;7.126;2024-01-15T08:48:31;26.92;;;11.32;;
33954;SDS011;20233;50.804;7.126;2024-01-15T08:50:58;25.40;;;11.70;;
33954;SDS011;20233;50.804;7.126;2024-01-15T08:53:24;18.27;;;9.15;;
33954;SDS011;20233;50.804;7.126;2024-01-15T08:55:50;22.20;;;10.98;;
33954;SDS011;20233;50.804;7.126;2024-01-15T08:58:18;27.85;;;11.13;;
33954;SDS011;20233;50.804;7.126;2024-01-15T09:00:44;22.95;;;10.27;;
33954;SDS011;20233;50.804;7.126;2024-01-15T09:03:10;22.17;;;10.45;;
33954;SDS011;20233;50.804;7.126;2024-01-15T09:05:38;23.45;;;10.70;;
33954;SDS011;20233;50.804;7.126;2024-01-15T09:08:06;24.73;;;11.30;;
33954;SDS011;20233;50.804;7.126;2024-01-15T09:10:32;24.48;;;11.40;;
33954;SDS011;20233;50.804;7.126;2024-01-15T09:12:59;32.15;;;13.07;;
33954;SDS011;20233;50.804;7.126;2024-01-15T09:15:26;26.25;;;11.27;;
33954;SDS011;20233;50.804;7.126;2024-01-15T09:17:52;25.08;;;11.00;;
33954;SDS011;20233;50.804;7.126;2024-01-15T09:20:19;26.55;;;10.23;;
33954;SDS011;20233;50.804;7.126;2024-01-15T09:22:48;22.15;;;10.68;;
33954;SDS011;20233;50.804;7.126;2024-01-15T09:25:14;21.13;;;10.32;;
33954;SDS011;20233;50.804;7.126;2024-01-15T09:27:41;26.00;;;11.15;;
33954;SDS011;20233;50.804;7.126;2024-01-15T09:30:08;26.30;;;11.90;;
33954;SDS011;20233;50.804;7.126;2024-01-15T09:32:35;24.55;;;10.43;;
33954;SDS011;20233;50.804;7.126;2024-01-15T09:35:01;28.83;;;11.38;;
33954;SDS011;20233;50.804;7.126;2024-01-15T09:37:29;18.83;;;10.55;;
33954;SDS011;20233;50.804;7.126;2024-01-15T09:40:00;19.80;;;9.70;;
33954;SDS011;20233;50.804;7.126;2024-01-15T09:42:27;17.73;;;8.70;;
33954;SDS011;20233;50.804;7.126;2024-01-15T09:44:54;19.25;;;8.90;;
33954;SDS011;20233;50.804;7.126;2024-01-15T09:47:25;19.70;;;9.52;;
33954;SDS011;20233;50.804;7.126;2024-01-15T09:49:51;19.60;;;9.48;;
33954;SDS011;20233;50.804;7.126;2024-01-15T09:52:17;16.10;;;7.07;;
33954;SDS011;20233;50.804;7.126;2024-01-15T09:54:45;14.35;;;7.18;;
33954;SDS011;20233;50.804;7.126;2024-01-15T09:57:12;10.18;;;6.18;;
33954;SDS011;20233;50.804;7.126;2024-01-15T09:59:38;16.92;;;7.40;;
33954;SDS011;20233;50.804;7.126;2024-01-15T10:02:08;14.50;;;7.65;;
33954;SDS011;20233;50.804;7.126;2024-01-15T10:04:34;17.40;;;8.77;;
33954;SDS011;20233;50.804;7.126;2024-01-15T10:07:05;10.80;;;6.78;;
33954;SDS011;20233;50.804;7.126;2024-01-15T10:09:33;12.60;;;6.82;;
33954;SDS011;20233;50.804;7.126;2024-01-15T10:12:03;15.27;;;6.28;;
33954;SDS011;20233;50.804;7.126;2024-01-15T10:14:30;11.43;;;6.20;;
33954;SDS011;20233;50.804;7.126;2024-01-15T10:16:57;9.00;;;5.53;;
33954;SDS011;20233;50.804;7.126;2024-01-15T10:19:24;9.45;;;6.70;;
33954;SDS011;20233;50.804;7.126;2024-01-15T10:21:56;8.93;;;5.70;;
33954;SDS011;20233;50.804;7.126;2024-01-15T10:24:22;13.02;;;6.55;;
33954;SDS011;20233;50.804;7.126;2024-01-15T10:26:49;12.75;;;6.55;;
33954;SDS011;20233;50.804;7.126;2024-01-15T10:29:14;13.27;;;6.78;;
33954;SDS011;20233;50.804;7.126;2024-01-15T10:31:40;11.60;;;7.30;;
33954;SDS011;20233;50.804;7.126;2024-01-15T10:34:10;9.80;;;6.78;;
33954;SDS011;20233;50.804;7.126;2024-01-15T10:36:40;13.73;;;7.18;;
33954;SDS011;20233;50.804;7.126;2024-01-15T10:39:06;11.27;;;7.38;;
33954;SDS011;20233;50.804;7.126;2024-01-15T10:41:33;13.65;;;6.90;;
33954;SDS011;20233;50.804;7.126;2024-01-15T10:43:59;10.38;;;6.45;;
33954;SDS011;20233;50.804;7.126;2024-01-15T10:46:25;11.68;;;7.93;;
33954;SDS011;20233;50.804;7.126;2024-01-15T10:48:51;16.33;;;7.20;;
33954;SDS011;20233;50.804;7.126;2024-01-15T10:51:17;12.48;;;7.72;;
33954;SDS011;20233;50.804;7.126;2024-01-15T10:53:44;13.60;;;7.43;;
33954;SDS011;20233;50.804;7.126;2024-01-15T10:56:11;10.45;;;6.68;;
33954;SDS011;20233;50.804;7.126;2024-01-15T10:58:39;14.38;;;7.75;;
33954;SDS011;20233;50.804;7.126;2024-01-15T11:01:06;12.02;;;7.18;;
33954;SDS011;20233;50.804;7.126;2024-01-15T11:03:33;12.98;;;7.65;;
33954;SDS011;20233;50.804;7.126;2024-01-15T11:05:59;13.05;;;7.18;;
33954;SDS011;20233;50.804;7.126;2024-01-15T11:08:25;11.90;;;7.38;;
33954;SDS011;20233;50.804;7.126;2024-01-15T11:10:52;12.48;;;7.22;;
33954;SDS011;20233;50.804;7.126;2024-01-15T11:13:20;10.38;;;6.45;;
33954;SDS011;20233;50.804;7.126;2024-01-15T11:16:05;12.15;;;7.20;;
33954;SDS011;20233;50.804;7.126;2024-01-15T11:18:37;12.27;;;5.95;;
33954;SDS011;20233;50.804;7.126;2024-01-15T11:21:23;11.77;;;5.70;;
33954;SDS011;20233;50.804;7.126;2024-01-15T11:23:56;9.00;;;5.28;;
33954;SDS011;20233;50.804;7.126;2024-01-15T11:26:30;14.82;;;6.97;;
33954;SDS011;20233;50.804;7.126;2024-01-15T11:28:57;11.02;;;6.53;;
33954;SDS011;20233;50.804;7.126;2024-01-15T11:39:51;11.90;;;7.25;;
33954;SDS011;20233;50.804;7.126;2024-01-15T11:42:12;13.00;;;8.15;;
33954;SDS011;20233;50.804;7.126;2024-01-15T11:44:40;15.52;;;8.05;;
33954;SDS011;20233;50.804;7.126;2024-01-15T11:47:08;11.77;;;7.72;;
33954;SDS011;20233;50.804;7.126;2024-01-15T11:52:32;12.88;;;7.50;;
33954;SDS011;20233;50.804;7.126;2024-01-15T11:57:50;12.90;;;7.68;;
33954;SDS011;20233;50.804;7.126;2024-01-15T12:00:20;13.13;;;7.45;;
33954;SDS011;20233;50.804;7.126;2024-01-15T12:02:47;12.27;;;7.50;;
33954;SDS011;20233;50.804;7.126;2024-01-15T12:05:15;10.30;;;7.22;;
33954;SDS011;20233;50.804;7.126;2024-01-15T12:07:44;13.23;;;8.75;;
33954;SDS011;20233;50.804;7.126;2024-01-15T12:10:13;14.98;;;8.50;;
33954;SDS011;20233;50.804;7.126;2024-01-15T12:15:12;15.13;;;9.73;;
33954;SDS011;20233;50.804;7.126;2024-01-15T12:17:40;13.65;;;8.82;;
33954;SDS011;20233;50.804;7.126;2024-01-15T12:20:07;15.75;;;8.85;;
33954;SDS011;20233;50.804;7.126;2024-01-15T12:22:34;15.73;;;8.68;;
33954;SDS011;20233;50.804;7.126;2024-01-15T12:25:00;14.30;;;8.75;;
33954;SDS011;20233;50.804;7.126;2024-01-15T12:27:27;14.30;;;7.53;;
33954;SDS011;20233;50.804;7.126;2024-01-15T12:29:53;16.30;;;9.30;;
33954;SDS011;20233;50.804;7.126;2024-01-15T12:32:19;17.38;;;8.80;;
33954;SDS011;20233;50.804;7.126;2024-01-15T12:34:49;18.90;;;9.10;;
33954;SDS011;20233;50.804;7.126;2024-01-15T12:37:15;15.75;;;8.63;;
33954;SDS011;20233;50.804;7.126;2024-01-15T12:39:45;15.48;;;8.57;;
33954;SDS011;20233;50.804;7.126;2024-01-15T12:42:11;24.08;;;13.05;;
33954;SDS011;20233;50.804;7.126;2024-01-15T12:44:43;18.17;;;9.55;;
33954;SDS011;20233;50.804;7.126;2024-01-15T12:47:10;16.15;;;8.63;;
33954;SDS011;20233;50.804;7.126;2024-01-15T12:49:38;21.65;;;8.23;;
33954;SDS011;20233;50.804;7.126;2024-01-15T12:52:07;12.65;;;7.50;;
33954;SDS011;20233;50.804;7.126;2024-01-15T12:54:34;17.05;;;6.43;;
33954;SDS011;20233;50.804;7.126;2024-01-15T12:57:00;19.05;;;5.82;;
33954;SDS011;20233;50.804;7.126;2024-01-15T12:59:26;10.88;;;5.55;;
33954;SDS011;20233;50.804;7.126;2024-01-15T13:01:51;22.58;;;8.38;;
33954;SDS011;20233;50.804;7.126;2024-01-15T13:04:23;14.13;;;5.43;;
33954;SDS011;20233;50.804;7.126;2024-01-15T13:06:50;11.20;;;6.57;;
33954;SDS011;20233;50.804;7.126;2024-01-15T13:09:16;13.63;;;5.20;;
33954;SDS011;20233;50.804;7.126;2024-01-15T13:11:46;13.32;;;4.30;;
33954;SDS011;20233;50.804;7.126;2024-01-15T13:14:12;9.55;;;4.30;;
33954;SDS011;20233;50.804;7.126;2024-01-15T13:16:41;11.95;;;5.15;;
33954;SDS011;20233;50.804;7.126;2024-01-15T13:19:08;13.00;;;6.43;;
33954;SDS011;20233;50.804;7.126;2024-01-15T13:21:42;10.75;;;4.55;;
33954;SDS011;20233;50.804;7.126;2024-01-15T13:24:07;11.35;;;4.82;;
33954;SDS011;20233;50.804;7.126;2024-01-15T13:26:34;13.23;;;4.72;;
33954;SDS011;20233;50.804;7.126;2024-01-15T13:29:03;9.18;;;4.50;;
33954;SDS011;20233;50.804;7.126;2024-01-15T13:31:32;11.75;;;4.75;;
33954;SDS011;20233;50.804;7.126;2024-01-15T13:33:59;9.98;;;3.65;;
33954;SDS011;20233;50.804;7.126;2024-01-15T13:36:25;7.60;;;3.22;;
33954;SDS011;20233;50.804;7.126;2024-01-15T13:38:52;9.60;;;3.22;;
33954;SDS011;20233;50.804;7.126;2024-01-15T13:41:19;11.35;;;3.90;;
33954;SDS011;20233;50.804;7.126;2024-01-15T13:43:54;7.63;;;4.05;;
33954;SDS011;20233;50.804;7.126;2024-01-15T13:46:22;10.48;;;3.90;;
33954;SDS011;20233;50.804;7.126;2024-01-15T13:48:49;5.05;;;3.20;;
33954;SDS011;20233;50.804;7.126;2024-01-15T13:51:15;6.97;;;3.55;;
33954;SDS011;20233;50.804;7.126;2024-01-15T13:53:41;7.60;;;3.28;;
33954;SDS011;20233;50.804;7.126;2024-01-15T13:56:07;7.10;;;3.60;;
33954;SDS011;20233;50.804;7.126;2024-01-15T13:58:35;6.53;;;3.25;;
33954;SDS011;20233;50.804;7.126;2024-01-15T14:01:04;6.32;;;3.08;;
33954;SDS011;20233;50.804;7.126;2024-01-15T14:03:31;10.40;;;3.33;;
33954;SDS011;20233;50.804;7.126;2024-01-15T14:05:59;9.20;;;3.15;;
33954;SDS011;20233;50.804;7.126;2024-01-15T14:08:25;7.75;;;3.15;;
33954;SDS011;20233;50.804;7.126;2024-01-15T14:10:51;7.68;;;2.97;;
33954;SDS011;20233;50.804;7.126;2024-01-15T14:13:17;9.82;;;3.15;;
33954;SDS011;20233;50.804;7.126;2024-01-15T14:15:43;4.55;;;3.05;;
33954;SDS011;20233;50.804;7.126;2024-01-15T14:18:09;6.45;;;2.72;;
33954;SDS011;20233;50.804;7.126;2024-01-15T14:20:34;10.48;;;4.15;;
33954;SDS011;20233;50.804;7.126;2024-01-15T14:23:00;7.72;;;2.85;;
33954;SDS011;20233;50.804;7.126;2024-01-15T14:25:26;6.65;;;3.38;;
33954;SDS011;20233;50.804;7.126;2024-01-15T14:27:52;5.82;;;2.50;;
33954;SDS011;20233;50.804;7.126;2024-01-15T14:30:19;5.30;;;2.90;;
33954;SDS011;20233;50.804;7.126;2024-01-15T14:32:46;9.00;;;3.10;;
33954;SDS011;20233;50.804;7.126;2024-01-15T14:35:11;4.85;;;2.45;;
33954;SDS011;20233;50.804;7.126;2024-01-15T14:37:38;6.05;;;2.33;;